sensor_id;sensor_type;location;lat;lon;timestamp;P1;durP1;ratioP1;P2;durP2;ratioP2
60243;SDS011;46106;51.468;5.814;2024-02-26T00:01:45;7.32;;;2.83;;
60243;SDS011;46106;51.468;5.814;2024-02-26T00:04:11;5.25;;;3.28;;
60243;SDS011;46106;51.468;5.814;2024-02-26T00:06:36;13.15;;;2.92;;
60243;SDS011;46106;51.468;5.814;2024-02-26T00:09:02;6.53;;;2.78;;
60243;SDS011;46106;51.468;5.814;2024-02-26T00:11:30;6.75;;;3.10;;
60243;SDS011;46106;51.468;5.814;2024-02-26T00:13:56;4.80;;;2.67;;
60243;SDS011;46106;51.468;5.814;2024-02-26T00:16:21;8.95;;;2.85;;
60243;SDS011;46106;51.468;5.814;2024-02-26T00:18:46;9.47;;;2.93;;
60243;SDS011;46106;51.468;5.814;2024-02-26T00:21:12;5.90;;;2.47;;
60243;SDS011;46106;51.468;5.814;2024-02-26T00:23:37;9.10;;;2.57;;
60243;SDS011;46106;51.468;5.814;2024-02-26T00:26:02;6.68;;;2.60;;
60243;SDS011;46106;51.468;5.814;2024-02-26T00:28:28;7.40;;;2.40;;
60243;SDS011;46106;51.468;5.814;2024-02-26T00:30:54;5.38;;;2.50;;
60243;SDS011;46106;51.468;5.814;2024-02-26T00:33:21;7.53;;;2.60;;
60243;SDS011;46106;51.468;5.814;2024-02-26T00:35:46;7.03;;;2.92;;
60243;SDS011;46106;51.468;5.814;2024-02-26T00:38:11;6.03;;;2.83;;
60243;SDS011;46106;51.468;5.814;2024-02-26T00:40:36;5.93;;;2.90;;
60243;SDS011;46106;51.468;5.814;2024-02-26T00:43:02;5.80;;;2.65;;
60243;SDS011;46106;51.468;5.814;2024-02-26T00:45:27;8.25;;;2.83;;
60243;SDS011;46106;51.468;5.814;2024-02-26T00:47:52;7.40;;;3.00;;
60243;SDS011;46106;51.468;5.814;2024-02-26T00:50:18;9.77;;;2.63;;
60243;SDS011;46106;51.468;5.814;2024-02-26T00:52:43;5.50;;;2.80;;
60243;SDS011;46106;51.468;5.814;2024-02-26T00:55:08;8.77;;;3.00;;
60243;SDS011;46106;51.468;5.814;2024-02-26T00:57:33;6.85;;;2.80;;
60243;SDS011;46106;51.468;5.814;2024-02-26T00:59:59;5.25;;;3.05;;
60243;SDS011;46106;51.468;5.814;2024-02-26T01:02:25;4.35;;;2.63;;
60243;SDS011;46106;51.468;5.814;2024-02-26T01:04:51;5.45;;;2.35;;
60243;SDS011;46106;51.468;5.814;2024-02-26T01:07:16;3.92;;;2.22;;
60243;SDS011;46106;51.468;5.814;2024-02-26T01:09:42;7.38;;;2.45;;
60243;SDS011;46106;51.468;5.814;2024-02-26T01:12:07;6.55;;;2.38;;
60243;SDS011;46106;51.468;5.814;2024-02-26T01:14:32;3.30;;;2.28;;
60243;SDS011;46106;51.468;5.814;2024-02-26T01:16:57;6.30;;;2.83;;
60243;SDS011;46106;51.468;5.814;2024-02-26T01:19:22;6.57;;;2.20;;
60243;SDS011;46106;51.468;5.814;2024-02-26T01:21:48;8.13;;;3.17;;
60243;SDS011;46106;51.468;5.814;2024-02-26T01:24:13;5.15;;;2.33;;
60243;SDS011;46106;51.468;5.814;2024-02-26T01:26:38;5.23;;;2.53;;
60243;SDS011;46106;51.468;5.814;2024-02-26T01:29:04;5.50;;;2.70;;
60243;SDS011;46106;51.468;5.814;2024-02-26T01:31:29;6.35;;;2.70;;
60243;SDS011;46106;51.468;5.814;2024-02-26T01:33:54;4.93;;;2.50;;
60243;SDS011;46106;51.468;5.814;2024-02-26T01:36:19;4.43;;;2.40;;
60243;SDS011;46106;51.468;5.814;2024-02-26T01:38:45;5.70;;;2.88;;
60243;SDS011;46106;51.468;5.814;2024-02-26T01:41:11;3.90;;;2.60;;
60243;SDS011;46106;51.468;5.814;2024-02-26T01:43:36;5.00;;;2.70;;
60243;SDS011;46106;51.468;5.814;2024-02-26T01:46:01;5.30;;;2.90;;
60243;SDS011;46106;51.468;5.814;2024-02-26T01:48:27;6.63;;;3.00;;
60243;SDS011;46106;51.468;5.814;2024-02-26T01:50:53;5.07;;;3.13;;
60243;SDS011;46106;51.468;5.814;2024-02-26T01:53:18;4.25;;;3.00;;
60243;SDS011;46106;51.468;5.814;2024-02-26T01:55:43;5.53;;;2.63;;
60243;SDS011;46106;51.468;5.814;2024-02-26T01:58:09;5.03;;;3.45;;
60243;SDS011;46106;51.468;5.814;2024-02-26T02:00:34;3.85;;;3.03;;
60243;SDS011;46106;51.468;5.814;2024-02-26T02:03:00;7.18;;;3.30;;
60243;SDS011;46106;51.468;5.814;2024-02-26T02:05:26;6.72;;;2.95;;
60243;SDS011;46106;51.468;5.814;2024-02-26T02:07:52;5.60;;;3.42;;
60243;SDS011;46106;51.468;5.814;2024-02-26T02:10:18;7.72;;;2.95;;
60243;SDS011;46106;51.468;5.814;2024-02-26T02:12:47;6.88;;;3.53;;
60243;SDS011;46106;51.468;5.814;2024-02-26T02:15:13;6.15;;;3.50;;
60243;SDS011;46106;51.468;5.814;2024-02-26T02:17:38;4.25;;;3.25;;
60243;SDS011;46106;51.468;5.814;2024-02-26T02:20:07;7.22;;;3.55;;
60243;SDS011;46106;51.468;5.814;2024-02-26T02:22:32;5.22;;;3.05;;
60243;SDS011;46106;51.468;5.814;2024-02-26T02:24:58;5.85;;;3.55;;
60243;SDS011;46106;51.468;5.814;2024-02-26T02:27:24;8.23;;;3.40;;
60243;SDS011;46106;51.468;5.814;2024-02-26T02:29:49;4.82;;;3.42;;
60243;SDS011;46106;51.468;5.814;2024-02-26T02:32:14;5.10;;;3.17;;
60243;SDS011;46106;51.468;5.814;2024-02-26T02:34:41;4.55;;;3.42;;
60243;SDS011;46106;51.468;5.814;2024-02-26T02:37:06;5.10;;;3.33;;
60243;SDS011;46106;51.468;5.814;2024-02-26T02:39:31;5.10;;;3.90;;
60243;SDS011;46106;51.468;5.814;2024-02-26T02:41:56;6.77;;;3.87;;
60243;SDS011;46106;51.468;5.814;2024-02-26T02:44:22;6.05;;;3.30;;
60243;SDS011;46106;51.468;5.814;2024-02-26T02:46:47;7.07;;;3.67;;
60243;SDS011;46106;51.468;5.814;2024-02-26T02:49:13;8.07;;;3.42;;
60243;SDS011;46106;51.468;5.814;2024-02-26T02:51:39;7.10;;;3.70;;
60243;SDS011;46106;51.468;5.814;2024-02-26T02:54:04;5.53;;;3.40;;
60243;SDS011;46106;51.468;5.814;2024-02-26T02:56:29;3.92;;;2.90;;
60243;SDS011;46106;51.468;5.814;2024-02-26T02:58:55;4.80;;;3.03;;
60243;SDS011;46106;51.468;5.814;2024-02-26T03:01:20;6.00;;;3.63;;
60243;SDS011;46106;51.468;5.814;2024-02-26T03:03:45;14.60;;;4.20;;
60243;SDS011;46106;51.468;5.814;2024-02-26T03:06:10;3.70;;;3.20;;
60243;SDS011;46106;51.468;5.814;2024-02-26T03:08:36;6.50;;;3.30;;
60243;SDS011;46106;51.468;5.814;2024-02-26T03:11:06;8.73;;;3.97;;
60243;SDS011;46106;51.468;5.814;2024-02-26T03:13:32;4.80;;;3.58;;
60243;SDS011;46106;51.468;5.814;2024-02-26T03:15:57;4.88;;;3.50;;
60243;SDS011;46106;51.468;5.814;2024-02-26T03:18:22;6.65;;;3.38;;
60243;SDS011;46106;51.468;5.814;2024-02-26T03:20:47;3.47;;;3.17;;
60243;SDS011;46106;51.468;5.814;2024-02-26T03:23:12;6.60;;;3.80;;
60243;SDS011;46106;51.468;5.814;2024-02-26T03:25:41;5.15;;;3.55;;
60243;SDS011;46106;51.468;5.814;2024-02-26T03:28:06;4.50;;;3.92;;
60243;SDS011;46106;51.468;5.814;2024-02-26T03:30:32;8.48;;;3.53;;
60243;SDS011;46106;51.468;5.814;2024-02-26T03:32:57;9.98;;;3.70;;
60243;SDS011;46106;51.468;5.814;2024-02-26T03:35:22;7.43;;;3.60;;
60243;SDS011;46106;51.468;5.814;2024-02-26T03:37:47;6.10;;;3.70;;
60243;SDS011;46106;51.468;5.814;2024-02-26T03:40:13;8.43;;;3.85;;
60243;SDS011;46106;51.468;5.814;2024-02-26T03:42:39;4.40;;;3.20;;
60243;SDS011;46106;51.468;5.814;2024-02-26T03:45:05;4.22;;;3.15;;
60243;SDS011;46106;51.468;5.814;2024-02-26T03:47:30;7.55;;;3.97;;
60243;SDS011;46106;51.468;5.814;2024-02-26T03:49:55;8.03;;;3.93;;
60243;SDS011;46106;51.468;5.814;2024-02-26T03:52:21;11.18;;;3.78;;
60243;SDS011;46106;51.468;5.814;2024-02-26T03:54:46;8.88;;;3.90;;
60243;SDS011;46106;51.468;5.814;2024-02-26T03:57:11;4.93;;;3.80;;
60243;SDS011;46106;51.468;5.814;2024-02-26T03:59:37;6.90;;;4.03;;
60243;SDS011;46106;51.468;5.814;2024-02-26T04:02:04;4.15;;;3.60;;
60243;SDS011;46106;51.468;5.814;2024-02-26T04:04:29;8.00;;;4.30;;
60243;SDS011;46106;51.468;5.814;2024-02-26T04:06:55;5.65;;;4.03;;
60243;SDS011;46106;51.468;5.814;2024-02-26T04:09:20;4.50;;;3.30;;
60243;SDS011;46106;51.468;5.814;2024-02-26T04:11:46;8.18;;;3.85;;
60243;SDS011;46106;51.468;5.814;2024-02-26T04:14:11;4.85;;;3.42;;
60243;SDS011;46106;51.468;5.814;2024-02-26T04:16:37;5.05;;;3.45;;
60243;SDS011;46106;51.468;5.814;2024-02-26T04:19:02;5.88;;;3.53;;
60243;SDS011;46106;51.468;5.814;2024-02-26T04:21:27;10.65;;;3.70;;
60243;SDS011;46106;51.468;5.814;2024-02-26T04:23:53;6.07;;;4.03;;
60243;SDS011;46106;51.468;5.814;2024-02-26T04:26:21;7.22;;;4.07;;
60243;SDS011;46106;51.468;5.814;2024-02-26T04:28:46;4.63;;;3.67;;
60243;SDS011;46106;51.468;5.814;2024-02-26T04:31:12;8.57;;;4.25;;
60243;SDS011;46106;51.468;5.814;2024-02-26T04:33:37;9.30;;;4.10;;
60243;SDS011;46106;51.468;5.814;2024-02-26T04:36:02;8.43;;;4.40;;
60243;SDS011;46106;51.468;5.814;2024-02-26T04:38:28;6.63;;;4.25;;
60243;SDS011;46106;51.468;5.814;2024-02-26T04:40:53;4.13;;;3.53;;
60243;SDS011;46106;51.468;5.814;2024-02-26T04:43:18;7.25;;;4.47;;
60243;SDS011;46106;51.468;5.814;2024-02-26T04:45:44;5.22;;;4.30;;
60243;SDS011;46106;51.468;5.814;2024-02-26T04:48:09;5.57;;;4.45;;
60243;SDS011;46106;51.468;5.814;2024-02-26T04:50:34;10.53;;;3.80;;
60243;SDS011;46106;51.468;5.814;2024-02-26T04:53:00;6.25;;;4.55;;
60243;SDS011;46106;51.468;5.814;2024-02-26T04:55:25;7.33;;;4.70;;
60243;SDS011;46106;51.468;5.814;2024-02-26T04:57:50;5.87;;;4.40;;
60243;SDS011;46106;51.468;5.814;2024-02-26T05:00:16;8.15;;;5.03;;
60243;SDS011;46106;51.468;5.814;2024-02-26T05:02:41;5.68;;;4.68;;
60243;SDS011;46106;51.468;5.814;2024-02-26T05:05:06;7.68;;;5.00;;
60243;SDS011;46106;51.468;5.814;2024-02-26T05:07:33;9.48;;;5.05;;
60243;SDS011;46106;51.468;5.814;2024-02-26T05:09:58;5.25;;;4.70;;
60243;SDS011;46106;51.468;5.814;2024-02-26T05:12:24;4.95;;;4.10;;
60243;SDS011;46106;51.468;5.814;2024-02-26T05:14:49;6.37;;;4.73;;
60243;SDS011;46106;51.468;5.814;2024-02-26T05:17:14;6.33;;;4.40;;
60243;SDS011;46106;51.468;5.814;2024-02-26T05:19:40;8.73;;;5.73;;
60243;SDS011;46106;51.468;5.814;2024-02-26T05:22:05;14.60;;;4.57;;
60243;SDS011;46106;51.468;5.814;2024-02-26T05:24:30;7.18;;;4.55;;
60243;SDS011;46106;51.468;5.814;2024-02-26T05:26:55;8.20;;;4.00;;
60243;SDS011;46106;51.468;5.814;2024-02-26T05:29:21;4.90;;;3.60;;
60243;SDS011;46106;51.468;5.814;2024-02-26T05:31:46;5.15;;;3.55;;
60243;SDS011;46106;51.468;5.814;2024-02-26T05:34:11;5.57;;;3.80;;
60243;SDS011;46106;51.468;5.814;2024-02-26T05:36:36;4.78;;;3.90;;
60243;SDS011;46106;51.468;5.814;2024-02-26T05:39:02;4.88;;;3.83;;
60243;SDS011;46106;51.468;5.814;2024-02-26T05:41:28;6.70;;;3.75;;
60243;SDS011;46106;51.468;5.814;2024-02-26T05:43:54;4.00;;;3.40;;
60243;SDS011;46106;51.468;5.814;2024-02-26T05:46:20;3.55;;;3.13;;
60243;SDS011;46106;51.468;5.814;2024-02-26T05:48:52;3.45;;;2.83;;
60243;SDS011;46106;51.468;5.814;2024-02-26T05:51:17;4.90;;;3.72;;
60243;SDS011;46106;51.468;5.814;2024-02-26T05:53:42;4.85;;;3.35;;
60243;SDS011;46106;51.468;5.814;2024-02-26T05:56:08;6.03;;;3.58;;
60243;SDS011;46106;51.468;5.814;2024-02-26T05:58:33;3.88;;;3.47;;
60243;SDS011;46106;51.468;5.814;2024-02-26T06:00:58;5.17;;;3.37;;
60243;SDS011;46106;51.468;5.814;2024-02-26T06:03:25;5.75;;;3.67;;
60243;SDS011;46106;51.468;5.814;2024-02-26T06:05:50;4.85;;;3.70;;
60243;SDS011;46106;51.468;5.814;2024-02-26T06:08:15;5.65;;;3.60;;
60243;SDS011;46106;51.468;5.814;2024-02-26T06:10:40;7.50;;;3.97;;
60243;SDS011;46106;51.468;5.814;2024-02-26T06:13:06;4.23;;;3.77;;
60243;SDS011;46106;51.468;5.814;2024-02-26T06:15:31;4.63;;;4.10;;
60243;SDS011;46106;51.468;5.814;2024-02-26T06:17:56;8.93;;;4.55;;
60243;SDS011;46106;51.468;5.814;2024-02-26T06:20:22;8.97;;;4.57;;
60243;SDS011;46106;51.468;5.814;2024-02-26T06:22:47;8.80;;;4.70;;
60243;SDS011;46106;51.468;5.814;2024-02-26T06:25:12;7.93;;;4.50;;
60243;SDS011;46106;51.468;5.814;2024-02-26T06:27:37;10.38;;;5.25;;
60243;SDS011;46106;51.468;5.814;2024-02-26T06:30:03;10.77;;;5.38;;
60243;SDS011;46106;51.468;5.814;2024-02-26T06:32:28;9.23;;;5.15;;
60243;SDS011;46106;51.468;5.814;2024-02-26T06:34:54;8.30;;;5.20;;
60243;SDS011;46106;51.468;5.814;2024-02-26T06:37:19;5.72;;;4.35;;
60243;SDS011;46106;51.468;5.814;2024-02-26T06:39:44;5.17;;;4.40;;
60243;SDS011;46106;51.468;5.814;2024-02-26T06:42:10;4.13;;;3.58;;
60243;SDS011;46106;51.468;5.814;2024-02-26T06:44:35;4.72;;;3.92;;
60243;SDS011;46106;51.468;5.814;2024-02-26T06:47:01;5.20;;;3.87;;
60243;SDS011;46106;51.468;5.814;2024-02-26T06:49:26;8.10;;;4.35;;
60243;SDS011;46106;51.468;5.814;2024-02-26T06:51:52;5.47;;;4.60;;
60243;SDS011;46106;51.468;5.814;2024-02-26T06:54:17;8.75;;;4.97;;
60243;SDS011;46106;51.468;5.814;2024-02-26T06:56:42;7.22;;;4.18;;
60243;SDS011;46106;51.468;5.814;2024-02-26T06:59:08;5.97;;;4.50;;
60243;SDS011;46106;51.468;5.814;2024-02-26T07:01:33;7.60;;;5.20;;
60243;SDS011;46106;51.468;5.814;2024-02-26T07:03:58;8.20;;;4.50;;
60243;SDS011;46106;51.468;5.814;2024-02-26T07:06:23;5.13;;;4.60;;
60243;SDS011;46106;51.468;5.814;2024-02-26T07:08:49;9.18;;;4.80;;
60243;SDS011;46106;51.468;5.814;2024-02-26T07:11:14;6.47;;;4.38;;
60243;SDS011;46106;51.468;5.814;2024-02-26T07:13:39;9.80;;;4.82;;
60243;SDS011;46106;51.468;5.814;2024-02-26T07:16:05;6.20;;;4.90;;
60243;SDS011;46106;51.468;5.814;2024-02-26T07:18:30;9.02;;;4.80;;
60243;SDS011;46106;51.468;5.814;2024-02-26T07:20:55;8.52;;;5.10;;
60243;SDS011;46106;51.468;5.814;2024-02-26T07:23:21;7.25;;;4.60;;
60243;SDS011;46106;51.468;5.814;2024-02-26T07:25:46;9.90;;;5.50;;
60243;SDS011;46106;51.468;5.814;2024-02-26T07:28:13;8.70;;;6.13;;
60243;SDS011;46106;51.468;5.814;2024-02-26T07:30:39;7.05;;;5.53;;
60243;SDS011;46106;51.468;5.814;2024-02-26T07:33:05;6.35;;;5.68;;
60243;SDS011;46106;51.468;5.814;2024-02-26T07:35:31;7.07;;;5.45;;
60243;SDS011;46106;51.468;5.814;2024-02-26T07:37:58;8.27;;;5.15;;
60243;SDS011;46106;51.468;5.814;2024-02-26T07:40:23;7.32;;;5.35;;
60243;SDS011;46106;51.468;5.814;2024-02-26T07:42:48;7.17;;;4.77;;
60243;SDS011;46106;51.468;5.814;2024-02-26T07:45:14;6.45;;;5.40;;
60243;SDS011;46106;51.468;5.814;2024-02-26T07:47:40;8.40;;;4.75;;
60243;SDS011;46106;51.468;5.814;2024-02-26T07:50:07;6.88;;;4.75;;
60243;SDS011;46106;51.468;5.814;2024-02-26T07:52:32;6.32;;;5.35;;
60243;SDS011;46106;51.468;5.814;2024-02-26T07:54:58;6.07;;;4.82;;
60243;SDS011;46106;51.468;5.814;2024-02-26T07:57:23;12.48;;;4.75;;
60243;SDS011;46106;51.468;5.814;2024-02-26T07:59:49;9.20;;;4.67;;
60243;SDS011;46106;51.468;5.814;2024-02-26T08:02:15;6.90;;;4.85;;
60243;SDS011;46106;51.468;5.814;2024-02-26T08:04:40;6.63;;;5.03;;
60243;SDS011;46106;51.468;5.814;2024-02-26T08:07:05;7.82;;;4.78;;
60243;SDS011;46106;51.468;5.814;2024-02-26T08:09:30;8.75;;;4.90;;
60243;SDS011;46106;51.468;5.814;2024-02-26T08:11:56;5.07;;;4.50;;
60243;SDS011;46106;51.468;5.814;2024-02-26T08:14:21;7.05;;;4.75;;
60243;SDS011;46106;51.468;5.814;2024-02-26T08:16:46;11.10;;;5.17;;
60243;SDS011;46106;51.468;5.814;2024-02-26T08:19:11;12.57;;;5.60;;
60243;SDS011;46106;51.468;5.814;2024-02-26T08:21:39;5.25;;;4.75;;
60243;SDS011;46106;51.468;5.814;2024-02-26T08:24:04;7.40;;;4.57;;
60243;SDS011;46106;51.468;5.814;2024-02-26T08:26:29;9.75;;;5.07;;
60243;SDS011;46106;51.468;5.814;2024-02-26T08:28:55;7.72;;;5.07;;
60243;SDS011;46106;51.468;5.814;2024-02-26T08:31:20;6.43;;;5.35;;
60243;SDS011;46106;51.468;5.814;2024-02-26T08:33:46;10.73;;;5.75;;
60243;SDS011;46106;51.468;5.814;2024-02-26T08:36:11;9.95;;;6.10;;
60243;SDS011;46106;51.468;5.814;2024-02-26T08:38:36;6.05;;;4.72;;
60243;SDS011;46106;51.468;5.814;2024-02-26T08:41:02;7.43;;;5.90;;
60243;SDS011;46106;51.468;5.814;2024-02-26T08:43:30;7.07;;;5.60;;
60243;SDS011;46106;51.468;5.814;2024-02-26T08:45:56;7.28;;;5.63;;
60243;SDS011;46106;51.468;5.814;2024-02-26T08:48:21;8.25;;;5.30;;
60243;SDS011;46106;51.468;5.814;2024-02-26T08:50:46;7.83;;;5.23;;
60243;SDS011;46106;51.468;5.814;2024-02-26T08:53:12;10.40;;;5.70;;
60243;SDS011;46106;51.468;5.814;2024-02-26T08:55:37;6.75;;;5.53;;
60243;SDS011;46106;51.468;5.814;2024-02-26T08:58:02;7.93;;;5.83;;
60243;SDS011;46106;51.468;5.814;2024-02-26T09:00:27;7.57;;;5.63;;
60243;SDS011;46106;51.468;5.814;2024-02-26T09:02:53;9.07;;;6.30;;
60243;SDS011;46106;51.468;5.814;2024-02-26T09:05:18;8.63;;;6.20;;
60243;SDS011;46106;51.468;5.814;2024-02-26T09:07:43;9.45;;;5.63;;
60243;SDS011;46106;51.468;5.814;2024-02-26T09:10:08;9.93;;;6.28;;
60243;SDS011;46106;51.468;5.814;2024-02-26T09:12:35;10.18;;;6.05;;
60243;SDS011;46106;51.468;5.814;2024-02-26T09:15:01;11.98;;;7.40;;
60243;SDS011;46106;51.468;5.814;2024-02-26T09:17:26;10.73;;;7.13;;
60243;SDS011;46106;51.468;5.814;2024-02-26T09:19:51;9.10;;;7.15;;
60243;SDS011;46106;51.468;5.814;2024-02-26T09:22:16;10.90;;;7.63;;
60243;SDS011;46106;51.468;5.814;2024-02-26T09:24:42;10.50;;;7.10;;
60243;SDS011;46106;51.468;5.814;2024-02-26T09:27:07;13.00;;;8.00;;
60243;SDS011;46106;51.468;5.814;2024-02-26T09:29:32;12.23;;;8.53;;
60243;SDS011;46106;51.468;5.814;2024-02-26T09:31:58;11.27;;;8.75;;
60243;SDS011;46106;51.468;5.814;2024-02-26T09:34:23;10.77;;;7.70;;
60243;SDS011;46106;51.468;5.814;2024-02-26T09:36:49;12.18;;;7.93;;
60243;SDS011;46106;51.468;5.814;2024-02-26T09:39:14;11.20;;;8.63;;
60243;SDS011;46106;51.468;5.814;2024-02-26T09:41:45;13.77;;;8.52;;
60243;SDS011;46106;51.468;5.814;2024-02-26T09:44:10;12.93;;;8.53;;
60243;SDS011;46106;51.468;5.814;2024-02-26T09:46:36;14.25;;;9.32;;
60243;SDS011;46106;51.468;5.814;2024-02-26T09:49:02;15.07;;;9.65;;
60243;SDS011;46106;51.468;5.814;2024-02-26T09:51:27;11.63;;;9.13;;
60243;SDS011;46106;51.468;5.814;2024-02-26T09:53:53;15.93;;;9.85;;
60243;SDS011;46106;51.468;5.814;2024-02-26T09:56:19;14.45;;;9.63;;
60243;SDS011;46106;51.468;5.814;2024-02-26T09:58:46;14.43;;;9.32;;
60243;SDS011;46106;51.468;5.814;2024-02-26T10:01:16;15.38;;;10.35;;
60243;SDS011;46106;51.468;5.814;2024-02-26T10:03:41;11.73;;;8.75;;
60243;SDS011;46106;51.468;5.814;2024-02-26T10:06:09;13.07;;;8.85;;
60243;SDS011;46106;51.468;5.814;2024-02-26T10:08:34;12.53;;;8.80;;
60243;SDS011;46106;51.468;5.814;2024-02-26T10:11:00;14.80;;;8.90;;
60243;SDS011;46106;51.468;5.814;2024-02-26T10:13:25;13.90;;;8.60;;
60243;SDS011;46106;51.468;5.814;2024-02-26T10:15:50;11.10;;;7.82;;
60243;SDS011;46106;51.468;5.814;2024-02-26T10:18:16;14.20;;;9.32;;
60243;SDS011;46106;51.468;5.814;2024-02-26T10:20:41;12.00;;;8.32;;
60243;SDS011;46106;51.468;5.814;2024-02-26T10:23:06;16.70;;;9.13;;
60243;SDS011;46106;51.468;5.814;2024-02-26T10:25:32;13.93;;;9.75;;
60243;SDS011;46106;51.468;5.814;2024-02-26T10:28:00;18.90;;;8.93;;
60243;SDS011;46106;51.468;5.814;2024-02-26T10:30:28;13.88;;;9.55;;
60243;SDS011;46106;51.468;5.814;2024-02-26T10:32:54;13.90;;;9.60;;
60243;SDS011;46106;51.468;5.814;2024-02-26T10:35:19;15.85;;;9.68;;
60243;SDS011;46106;51.468;5.814;2024-02-26T10:37:47;15.77;;;10.73;;
60243;SDS011;46106;51.468;5.814;2024-02-26T10:40:13;17.17;;;10.50;;
60243;SDS011;46106;51.468;5.814;2024-02-26T10:42:39;15.02;;;10.32;;
60243;SDS011;46106;51.468;5.814;2024-02-26T10:45:05;15.43;;;9.68;;
60243;SDS011;46106;51.468;5.814;2024-02-26T10:47:31;13.23;;;9.43;;
60243;SDS011;46106;51.468;5.814;2024-02-26T10:49:58;15.63;;;9.35;;
60243;SDS011;46106;51.468;5.814;2024-02-26T10:52:23;15.77;;;9.97;;
60243;SDS011;46106;51.468;5.814;2024-02-26T10:54:50;11.73;;;8.93;;
60243;SDS011;46106;51.468;5.814;2024-02-26T10:57:18;14.52;;;9.25;;
60243;SDS011;46106;51.468;5.814;2024-02-26T10:59:44;16.15;;;9.30;;
60243;SDS011;46106;51.468;5.814;2024-02-26T11:02:09;14.93;;;8.63;;
60243;SDS011;46106;51.468;5.814;2024-02-26T11:04:35;15.77;;;10.25;;
60243;SDS011;46106;51.468;5.814;2024-02-26T11:07:01;12.82;;;8.38;;
60243;SDS011;46106;51.468;5.814;2024-02-26T11:09:27;17.63;;;9.63;;
60243;SDS011;46106;51.468;5.814;2024-02-26T11:11:52;15.60;;;9.52;;
60243;SDS011;46106;51.468;5.814;2024-02-26T11:14:19;17.13;;;9.38;;
60243;SDS011;46106;51.468;5.814;2024-02-26T11:16:45;16.65;;;10.00;;
60243;SDS011;46106;51.468;5.814;2024-02-26T11:19:12;14.75;;;10.15;;
60243;SDS011;46106;51.468;5.814;2024-02-26T11:21:38;14.18;;;9.75;;
60243;SDS011;46106;51.468;5.814;2024-02-26T11:24:08;20.42;;;10.95;;
60243;SDS011;46106;51.468;5.814;2024-02-26T11:26:34;17.73;;;11.55;;
60243;SDS011;46106;51.468;5.814;2024-02-26T11:29:01;19.23;;;11.60;;
60243;SDS011;46106;51.468;5.814;2024-02-26T11:31:27;13.02;;;8.82;;
60243;SDS011;46106;51.468;5.814;2024-02-26T11:33:53;14.63;;;10.40;;
60243;SDS011;46106;51.468;5.814;2024-02-26T11:36:19;15.98;;;10.32;;
60243;SDS011;46106;51.468;5.814;2024-02-26T11:38:45;18.55;;;11.10;;
60243;SDS011;46106;51.468;5.814;2024-02-26T11:41:13;17.58;;;11.18;;
60243;SDS011;46106;51.468;5.814;2024-02-26T11:43:53;24.88;;;11.55;;
60243;SDS011;46106;51.468;5.814;2024-02-26T11:46:25;17.75;;;12.07;;
60243;SDS011;46106;51.468;5.814;2024-02-26T11:48:50;18.57;;;11.13;;
60243;SDS011;46106;51.468;5.814;2024-02-26T11:51:15;23.08;;;14.05;;
60243;SDS011;46106;51.468;5.814;2024-02-26T11:53:47;23.00;;;13.27;;
60243;SDS011;46106;51.468;5.814;2024-02-26T11:58:44;23.83;;;13.80;;
60243;SDS011;46106;51.468;5.814;2024-02-26T12:03:54;21.65;;;11.55;;
60243;SDS011;46106;51.468;5.814;2024-02-26T12:06:19;21.00;;;13.48;;
60243;SDS011;46106;51.468;5.814;2024-02-26T12:08:45;27.08;;;14.02;;
60243;SDS011;46106;51.468;5.814;2024-02-26T12:11:16;24.83;;;14.52;;
60243;SDS011;46106;51.468;5.814;2024-02-26T12:13:41;26.38;;;15.13;;
60243;SDS011;46106;51.468;5.814;2024-02-26T12:16:07;27.05;;;14.45;;
60243;SDS011;46106;51.468;5.814;2024-02-26T12:18:34;28.48;;;15.45;;
60243;SDS011;46106;51.468;5.814;2024-02-26T12:21:00;23.92;;;14.23;;
60243;SDS011;46106;51.468;5.814;2024-02-26T12:23:28;23.38;;;15.07;;
60243;SDS011;46106;51.468;5.814;2024-02-26T12:25:53;31.05;;;16.30;;
60243;SDS011;46106;51.468;5.814;2024-02-26T12:28:19;33.42;;;15.50;;
60243;SDS011;46106;51.468;5.814;2024-02-26T12:30:44;24.25;;;13.65;;
60243;SDS011;46106;51.468;5.814;2024-02-26T12:33:09;30.95;;;15.68;;
60243;SDS011;46106;51.468;5.814;2024-02-26T12:35:35;28.95;;;16.30;;
60243;SDS011;46106;51.468;5.814;2024-02-26T12:38:01;33.47;;;15.48;;
60243;SDS011;46106;51.468;5.814;2024-02-26T12:40:28;27.63;;;13.55;;
60243;SDS011;46106;51.468;5.814;2024-02-26T12:42:54;31.52;;;15.35;;
60243;SDS011;46106;51.468;5.814;2024-02-26T12:45:20;29.63;;;15.98;;
60243;SDS011;46106;51.468;5.814;2024-02-26T12:47:45;35.28;;;15.90;;
60243;SDS011;46106;51.468;5.814;2024-02-26T12:50:11;33.30;;;16.25;;
60243;SDS011;46106;51.468;5.814;2024-02-26T12:52:39;31.60;;;14.57;;
60243;SDS011;46106;51.468;5.814;2024-02-26T12:55:05;30.92;;;14.98;;
60243;SDS011;46106;51.468;5.814;2024-02-26T12:57:35;21.90;;;11.13;;
60243;SDS011;46106;51.468;5.814;2024-02-26T13:00:01;31.70;;;15.02;;
60243;SDS011;46106;51.468;5.814;2024-02-26T13:02:26;31.80;;;13.88;;
60243;SDS011;46106;51.468;5.814;2024-02-26T13:04:52;33.35;;;14.93;;
60243;SDS011;46106;51.468;5.814;2024-02-26T13:07:17;37.53;;;15.93;;
60243;SDS011;46106;51.468;5.814;2024-02-26T13:09:43;42.70;;;16.70;;
60243;SDS011;46106;51.468;5.814;2024-02-26T13:12:08;39.85;;;16.42;;
60243;SDS011;46106;51.468;5.814;2024-02-26T13:14:34;44.55;;;16.75;;
60243;SDS011;46106;51.468;5.814;2024-02-26T13:16:59;45.05;;;17.85;;
60243;SDS011;46106;51.468;5.814;2024-02-26T13:19:25;38.88;;;16.33;;
60243;SDS011;46106;51.468;5.814;2024-02-26T13:21:50;51.83;;;17.52;;
60243;SDS011;46106;51.468;5.814;2024-02-26T13:24:15;47.90;;;18.33;;
60243;SDS011;46106;51.468;5.814;2024-02-26T13:26:42;44.10;;;18.85;;
60243;SDS011;46106;51.468;5.814;2024-02-26T13:29:08;41.10;;;18.75;;
60243;SDS011;46106;51.468;5.814;2024-02-26T13:31:42;40.37;;;16.90;;
60243;SDS011;46106;51.468;5.814;2024-02-26T13:34:07;41.65;;;18.00;;
60243;SDS011;46106;51.468;5.814;2024-02-26T13:36:32;47.90;;;18.50;;
60243;SDS011;46106;51.468;5.814;2024-02-26T13:38:58;47.50;;;19.30;;
60243;SDS011;46106;51.468;5.814;2024-02-26T13:41:23;42.40;;;18.25;;
60243;SDS011;46106;51.468;5.814;2024-02-26T13:43:48;38.30;;;17.35;;
60243;SDS011;46106;51.468;5.814;2024-02-26T13:46:14;43.00;;;18.08;;
60243;SDS011;46106;51.468;5.814;2024-02-26T13:48:41;40.33;;;17.20;;
60243;SDS011;46106;51.468;5.814;2024-02-26T13:51:06;41.33;;;17.88;;
60243;SDS011;46106;51.468;5.814;2024-02-26T13:53:31;37.78;;;16.50;;
60243;SDS011;46106;51.468;5.814;2024-02-26T13:55:57;45.00;;;15.77;;
60243;SDS011;46106;51.468;5.814;2024-02-26T13:58:23;35.58;;;15.73;;
60243;SDS011;46106;51.468;5.814;2024-02-26T14:00:49;38.00;;;15.90;;
60243;SDS011;46106;51.468;5.814;2024-02-26T14:03:14;37.53;;;15.88;;
60243;SDS011;46106;51.468;5.814;2024-02-26T14:05:41;35.33;;;13.85;;
60243;SDS011;46106;51.468;5.814;2024-02-26T14:08:06;34.15;;;14.68;;
60243;SDS011;46106;51.468;5.814;2024-02-26T14:10:31;32.83;;;14.65;;
60243;SDS011;46106;51.468;5.814;2024-02-26T14:12:57;36.00;;;15.07;;
60243;SDS011;46106;51.468;5.814;2024-02-26T14:15:22;28.60;;;12.23;;
60243;SDS011;46106;51.468;5.814;2024-02-26T14:17:49;30.80;;;14.00;;
60243;SDS011;46106;51.468;5.814;2024-02-26T14:20:19;28.88;;;13.55;;
60243;SDS011;46106;51.468;5.814;2024-02-26T14:22:45;26.40;;;12.77;;
60243;SDS011;46106;51.468;5.814;2024-02-26T14:25:10;28.03;;;11.67;;
60243;SDS011;46106;51.468;5.814;2024-02-26T14:27:35;21.23;;;11.02;;
60243;SDS011;46106;51.468;5.814;2024-02-26T14:30:01;23.55;;;11.40;;
60243;SDS011;46106;51.468;5.814;2024-02-26T14:32:26;23.80;;;11.23;;
60243;SDS011;46106;51.468;5.814;2024-02-26T14:34:52;19.90;;;10.20;;